Farrell, Pennsylvania
Current Conditions -  °F | °C
As of 9:51 AM on Wednesday 26 Nov 2014 (Local Time) from KYNG Reporting Station
Overcast Overcast  
Wind Chill: 27°   Ceiling: 3000
Heat Index: 32°   Visibility: 10mi
Dew Point: 26°   Wind: 5mph
Humidity: 79%   Direction: 20°NNE
Pressure: 30.09"   Gusts: NA
Location:  41.22°N, 80.51°W
Report Text: KYNG 261451Z 02004KT 10SM BKN030 BKN095 OVC150 00/M03 A3009 RMK AO2 SLP200 T00001033 58001
Loading
Personal Weather Stations






























Interactive Weather Map New forecast layout! Learn more

10-Day Weather Forecast

Advertisements
Track Severe Weather on mobile